sensor_id;sensor_type;location;lat;lon;timestamp;temperature;humidity
28175;SHT30;59417;44.788;10.334;2023-05-20T00:00:16;15.48;89.01
28175;SHT30;59417;44.788;10.334;2023-05-20T00:02:42;15.45;89.17
28175;SHT30;59417;44.788;10.334;2023-05-20T00:05:08;15.48;89.24
28175;SHT30;59417;44.788;10.334;2023-05-20T00:07:34;15.43;89.52
28175;SHT30;59417;44.788;10.334;2023-05-20T00:09:59;15.36;89.67
28175;SHT30;59417;44.788;10.334;2023-05-20T00:12:25;15.31;89.98
28175;SHT30;59417;44.788;10.334;2023-05-20T00:14:51;15.29;89.99
28175;SHT30;59417;44.788;10.334;2023-05-20T00:17:16;15.31;90.00
28175;SHT30;59417;44.788;10.334;2023-05-20T00:19:42;15.32;90.22
28175;SHT30;59417;44.788;10.334;2023-05-20T00:22:08;15.36;90.11
28175;SHT30;59417;44.788;10.334;2023-05-20T00:24:33;15.39;89.87
28175;SHT30;59417;44.788;10.334;2023-05-20T00:26:59;15.36;89.78
28175;SHT30;59417;44.788;10.334;2023-05-20T00:29:24;15.31;89.97
28175;SHT30;59417;44.788;10.334;2023-05-20T00:31:50;15.34;89.89
28175;SHT30;59417;44.788;10.334;2023-05-20T00:34:16;15.42;89.57
28175;SHT30;59417;44.788;10.334;2023-05-20T00:36:42;15.35;89.47
28175;SHT30;59417;44.788;10.334;2023-05-20T00:39:07;15.36;89.76
28175;SHT30;59417;44.788;10.334;2023-05-20T00:41:33;15.34;89.74
28175;SHT30;59417;44.788;10.334;2023-05-20T00:43:59;15.34;89.74
28175;SHT30;59417;44.788;10.334;2023-05-20T00:46:27;15.39;89.60
28175;SHT30;59417;44.788;10.334;2023-05-20T00:48:53;15.39;89.63
28175;SHT30;59417;44.788;10.334;2023-05-20T00:51:19;15.39;89.73
28175;SHT30;59417;44.788;10.334;2023-05-20T00:53:45;15.32;89.84
28175;SHT30;59417;44.788;10.334;2023-05-20T00:56:11;15.29;90.03
28175;SHT30;59417;44.788;10.334;2023-05-20T00:58:38;15.31;90.01
28175;SHT30;59417;44.788;10.334;2023-05-20T01:01:05;15.27;90.00
28175;SHT30;59417;44.788;10.334;2023-05-20T01:03:31;15.27;89.96
28175;SHT30;59417;44.788;10.334;2023-05-20T01:05:57;15.22;90.01
28175;SHT30;59417;44.788;10.334;2023-05-20T01:08:24;15.23;89.75
28175;SHT30;59417;44.788;10.334;2023-05-20T01:11:03;15.27;89.58
28175;SHT30;59417;44.788;10.334;2023-05-20T01:13:36;15.32;89.02
28175;SHT30;59417;44.788;10.334;2023-05-20T01:16:04;15.39;89.01
28175;SHT30;59417;44.788;10.334;2023-05-20T01:18:31;15.34;89.36
28175;SHT30;59417;44.788;10.334;2023-05-20T01:20:58;15.27;89.47
28175;SHT30;59417;44.788;10.334;2023-05-20T01:23:37;15.23;89.73
28175;SHT30;59417;44.788;10.334;2023-05-20T01:26:07;15.18;90.10
28175;SHT30;59417;44.788;10.334;2023-05-20T01:28:36;15.18;90.07
28175;SHT30;59417;44.788;10.334;2023-05-20T01:31:05;15.21;89.90
28175;SHT30;59417;44.788;10.334;2023-05-20T01:33:39;15.15;90.03
28175;SHT30;59417;44.788;10.334;2023-05-20T01:36:07;15.12;90.15
28175;SHT30;59417;44.788;10.334;2023-05-20T01:38:35;15.18;90.07
28175;SHT30;59417;44.788;10.334;2023-05-20T01:41:03;15.16;90.04
28175;SHT30;59417;44.788;10.334;2023-05-20T01:43:29;15.11;90.27
28175;SHT30;59417;44.788;10.334;2023-05-20T01:45:55;15.11;90.35
28175;SHT30;59417;44.788;10.334;2023-05-20T01:48:21;15.09;90.47
28175;SHT30;59417;44.788;10.334;2023-05-20T01:50:47;15.16;90.49
28175;SHT30;59417;44.788;10.334;2023-05-20T01:53:13;15.18;90.43
28175;SHT30;59417;44.788;10.334;2023-05-20T01:55:40;15.28;90.22
28175;SHT30;59417;44.788;10.334;2023-05-20T01:58:06;15.27;90.14
28175;SHT30;59417;44.788;10.334;2023-05-20T02:00:32;15.23;90.13
28175;SHT30;59417;44.788;10.334;2023-05-20T02:03:00;15.25;90.06
28175;SHT30;59417;44.788;10.334;2023-05-20T02:05:28;15.29;90.06
28175;SHT30;59417;44.788;10.334;2023-05-20T02:07:54;15.23;89.89
28175;SHT30;59417;44.788;10.334;2023-05-20T02:10:21;15.27;89.92
28175;SHT30;59417;44.788;10.334;2023-05-20T02:12:47;15.18;90.22
28175;SHT30;59417;44.788;10.334;2023-05-20T02:15:13;15.21;90.09
28175;SHT30;59417;44.788;10.334;2023-05-20T02:17:40;15.28;89.66
28175;SHT30;59417;44.788;10.334;2023-05-20T02:20:08;15.15;90.09
28175;SHT30;59417;44.788;10.334;2023-05-20T02:22:35;15.19;90.10
28175;SHT30;59417;44.788;10.334;2023-05-20T02:25:02;15.22;89.83
28175;SHT30;59417;44.788;10.334;2023-05-20T02:27:28;15.21;89.68
28175;SHT30;59417;44.788;10.334;2023-05-20T02:29:53;15.15;89.67
28175;SHT30;59417;44.788;10.334;2023-05-20T02:32:19;15.14;89.83
28175;SHT30;59417;44.788;10.334;2023-05-20T02:34:46;15.14;90.18
28175;SHT30;59417;44.788;10.334;2023-05-20T02:37:11;15.16;90.26
28175;SHT30;59417;44.788;10.334;2023-05-20T02:39:37;15.15;90.04
28175;SHT30;59417;44.788;10.334;2023-05-20T02:42:03;15.19;89.86
28175;SHT30;59417;44.788;10.334;2023-05-20T02:44:29;15.12;90.14
28175;SHT30;59417;44.788;10.334;2023-05-20T02:46:55;15.15;90.23
28175;SHT30;59417;44.788;10.334;2023-05-20T02:49:21;15.21;90.31
28175;SHT30;59417;44.788;10.334;2023-05-20T02:51:47;15.23;90.05
28175;SHT30;59417;44.788;10.334;2023-05-20T02:54:14;15.32;89.92
28175;SHT30;59417;44.788;10.334;2023-05-20T02:56:40;15.29;89.89
28175;SHT30;59417;44.788;10.334;2023-05-20T02:59:06;15.29;89.86
28175;SHT30;59417;44.788;10.334;2023-05-20T03:01:33;15.36;89.50
28175;SHT30;59417;44.788;10.334;2023-05-20T03:04:01;15.42;89.02
28175;SHT30;59417;44.788;10.334;2023-05-20T03:06:28;15.27;89.73
28175;SHT30;59417;44.788;10.334;2023-05-20T03:08:56;15.29;89.95
28175;SHT30;59417;44.788;10.334;2023-05-20T03:11:23;15.29;89.96
28175;SHT30;59417;44.788;10.334;2023-05-20T03:13:49;15.41;89.26
28175;SHT30;59417;44.788;10.334;2023-05-20T03:16:17;15.31;89.76
28175;SHT30;59417;44.788;10.334;2023-05-20T03:18:43;15.35;89.65
28175;SHT30;59417;44.788;10.334;2023-05-20T03:21:11;15.36;89.35
28175;SHT30;59417;44.788;10.334;2023-05-20T03:23:37;15.29;89.48
28175;SHT30;59417;44.788;10.334;2023-05-20T03:26:03;15.18;90.19
28175;SHT30;59417;44.788;10.334;2023-05-20T03:28:32;15.16;90.35
28175;SHT30;59417;44.788;10.334;2023-05-20T03:30:58;15.16;90.22
28175;SHT30;59417;44.788;10.334;2023-05-20T03:33:24;15.28;90.00
28175;SHT30;59417;44.788;10.334;2023-05-20T03:35:51;15.32;89.28
28175;SHT30;59417;44.788;10.334;2023-05-20T03:38:17;15.19;89.83
28175;SHT30;59417;44.788;10.334;2023-05-20T03:40:43;15.16;90.02
28175;SHT30;59417;44.788;10.334;2023-05-20T03:43:09;15.18;89.51
28175;SHT30;59417;44.788;10.334;2023-05-20T03:45:35;15.05;90.35
28175;SHT30;59417;44.788;10.334;2023-05-20T03:48:05;15.01;90.96
28175;SHT30;59417;44.788;10.334;2023-05-20T03:50:33;15.12;90.11
28175;SHT30;59417;44.788;10.334;2023-05-20T03:52:59;15.14;89.86
28175;SHT30;59417;44.788;10.334;2023-05-20T03:55:26;15.14;89.55
28175;SHT30;59417;44.788;10.334;2023-05-20T03:57:53;15.00;90.49
28175;SHT30;59417;44.788;10.334;2023-05-20T04:00:19;15.02;90.39
28175;SHT30;59417;44.788;10.334;2023-05-20T04:02:47;15.01;90.44
28175;SHT30;59417;44.788;10.334;2023-05-20T04:05:16;14.98;90.17
28175;SHT30;59417;44.788;10.334;2023-05-20T04:07:42;14.97;90.50
28175;SHT30;59417;44.788;10.334;2023-05-20T04:10:08;14.90;90.80
28175;SHT30;59417;44.788;10.334;2023-05-20T04:12:34;14.92;90.88
28175;SHT30;59417;44.788;10.334;2023-05-20T04:15:02;14.94;90.73
28175;SHT30;59417;44.788;10.334;2023-05-20T04:17:34;14.97;90.61
28175;SHT30;59417;44.788;10.334;2023-05-20T04:20:03;15.08;89.93
28175;SHT30;59417;44.788;10.334;2023-05-20T04:22:33;14.98;90.34
28175;SHT30;59417;44.788;10.334;2023-05-20T04:24:59;14.94;90.78
28175;SHT30;59417;44.788;10.334;2023-05-20T04:27:25;15.02;90.62
28175;SHT30;59417;44.788;10.334;2023-05-20T04:29:51;14.94;90.75
28175;SHT30;59417;44.788;10.334;2023-05-20T04:32:20;14.98;90.68
28175;SHT30;59417;44.788;10.334;2023-05-20T04:34:46;15.01;90.51
28175;SHT30;59417;44.788;10.334;2023-05-20T04:37:13;15.02;90.43
28175;SHT30;59417;44.788;10.334;2023-05-20T04:39:39;15.00;90.63
28175;SHT30;59417;44.788;10.334;2023-05-20T04:42:11;14.97;90.56
28175;SHT30;59417;44.788;10.334;2023-05-20T04:44:37;15.11;90.19
28175;SHT30;59417;44.788;10.334;2023-05-20T04:47:04;15.16;89.44
28175;SHT30;59417;44.788;10.334;2023-05-20T04:49:35;15.15;89.40
28175;SHT30;59417;44.788;10.334;2023-05-20T04:52:01;15.12;89.58
28175;SHT30;59417;44.788;10.334;2023-05-20T04:54:27;15.18;89.42
28175;SHT30;59417;44.788;10.334;2023-05-20T04:56:52;15.19;89.23
28175;SHT30;59417;44.788;10.334;2023-05-20T04:59:18;15.08;89.77
28175;SHT30;59417;44.788;10.334;2023-05-20T05:01:44;15.02;90.49
28175;SHT30;59417;44.788;10.334;2023-05-20T05:04:10;14.98;90.74
28175;SHT30;59417;44.788;10.334;2023-05-20T05:06:36;14.91;90.89
28175;SHT30;59417;44.788;10.334;2023-05-20T05:09:01;15.02;90.52
28175;SHT30;59417;44.788;10.334;2023-05-20T05:11:27;15.02;90.22
28175;SHT30;59417;44.788;10.334;2023-05-20T05:13:54;14.97;90.80
28175;SHT30;59417;44.788;10.334;2023-05-20T05:16:23;15.02;90.85
28175;SHT30;59417;44.788;10.334;2023-05-20T05:18:49;15.02;90.75
28175;SHT30;59417;44.788;10.334;2023-05-20T05:21:15;15.15;89.80
28175;SHT30;59417;44.788;10.334;2023-05-20T05:23:41;15.18;89.77
28175;SHT30;59417;44.788;10.334;2023-05-20T05:26:07;15.15;90.02
28175;SHT30;59417;44.788;10.334;2023-05-20T05:28:34;15.05;90.46
28175;SHT30;59417;44.788;10.334;2023-05-20T05:31:00;15.01;90.75
28175;SHT30;59417;44.788;10.334;2023-05-20T05:33:27;15.01;91.02
28175;SHT30;59417;44.788;10.334;2023-05-20T05:35:54;15.05;90.98
28175;SHT30;59417;44.788;10.334;2023-05-20T05:38:23;15.18;90.13
28175;SHT30;59417;44.788;10.334;2023-05-20T05:40:49;15.12;90.33
28175;SHT30;59417;44.788;10.334;2023-05-20T05:43:16;15.15;89.99
28175;SHT30;59417;44.788;10.334;2023-05-20T05:45:43;15.07;90.36
28175;SHT30;59417;44.788;10.334;2023-05-20T05:48:09;15.04;90.48
28175;SHT30;59417;44.788;10.334;2023-05-20T05:50:35;15.07;90.72
28175;SHT30;59417;44.788;10.334;2023-05-20T05:53:00;15.08;90.69
28175;SHT30;59417;44.788;10.334;2023-05-20T05:55:26;15.09;90.49
28175;SHT30;59417;44.788;10.334;2023-05-20T05:57:53;15.15;90.06
28175;SHT30;59417;44.788;10.334;2023-05-20T06:20:04;15.25;89.52
28175;SHT30;59417;44.788;10.334;2023-05-20T06:22:31;15.16;90.14
28175;SHT30;59417;44.788;10.334;2023-05-20T06:24:56;15.23;89.76
28175;SHT30;59417;44.788;10.334;2023-05-20T06:27:25;15.29;89.58
28175;SHT30;59417;44.788;10.334;2023-05-20T06:29:52;15.22;90.07
28175;SHT30;59417;44.788;10.334;2023-05-20T06:32:17;15.23;89.73
28175;SHT30;59417;44.788;10.334;2023-05-20T06:34:44;15.12;89.91
28175;SHT30;59417;44.788;10.334;2023-05-20T06:37:10;15.05;90.49
28175;SHT30;59417;44.788;10.334;2023-05-20T06:39:36;15.01;90.86
28175;SHT30;59417;44.788;10.334;2023-05-20T06:42:02;15.02;90.72
28175;SHT30;59417;44.788;10.334;2023-05-20T06:44:30;15.02;90.60
28175;SHT30;59417;44.788;10.334;2023-05-20T06:47:19;15.08;90.60
28175;SHT30;59417;44.788;10.334;2023-05-20T06:49:46;15.12;90.59
28175;SHT30;59417;44.788;10.334;2023-05-20T06:52:12;15.07;90.44
28175;SHT30;59417;44.788;10.334;2023-05-20T06:54:38;15.15;90.16
28175;SHT30;59417;44.788;10.334;2023-05-20T06:57:09;15.09;90.68
28175;SHT30;59417;44.788;10.334;2023-05-20T06:59:35;15.12;90.36
28175;SHT30;59417;44.788;10.334;2023-05-20T07:02:03;15.09;90.67
28175;SHT30;59417;44.788;10.334;2023-05-20T07:04:30;15.09;90.74
28175;SHT30;59417;44.788;10.334;2023-05-20T07:06:56;15.21;90.74
28175;SHT30;59417;44.788;10.334;2023-05-20T07:09:22;15.25;89.97
28175;SHT30;59417;44.788;10.334;2023-05-20T07:11:49;15.22;90.26
28175;SHT30;59417;44.788;10.334;2023-05-20T07:14:15;15.28;90.23
28175;SHT30;59417;44.788;10.334;2023-05-20T07:16:41;15.18;90.85
28175;SHT30;59417;44.788;10.334;2023-05-20T07:19:07;15.21;90.68
28175;SHT30;59417;44.788;10.334;2023-05-20T07:21:33;15.16;90.52
28175;SHT30;59417;44.788;10.334;2023-05-20T07:24:15;15.25;90.36
28175;SHT30;59417;44.788;10.334;2023-05-20T07:26:41;15.23;90.66
28175;SHT30;59417;44.788;10.334;2023-05-20T07:29:07;15.27;90.75
28175;SHT30;59417;44.788;10.334;2023-05-20T07:31:37;15.27;89.80
28175;SHT30;59417;44.788;10.334;2023-05-20T07:34:03;15.22;90.12
28175;SHT30;59417;44.788;10.334;2023-05-20T07:36:29;15.21;90.78
28175;SHT30;59417;44.788;10.334;2023-05-20T07:38:59;15.21;90.95
28175;SHT30;59417;44.788;10.334;2023-05-20T07:41:24;15.28;89.95
28175;SHT30;59417;44.788;10.334;2023-05-20T07:43:50;15.15;90.33
28175;SHT30;59417;44.788;10.334;2023-05-20T07:46:17;15.23;90.81
28175;SHT30;59417;44.788;10.334;2023-05-20T07:48:43;15.35;90.52
28175;SHT30;59417;44.788;10.334;2023-05-20T07:51:10;15.36;90.30
28175;SHT30;59417;44.788;10.334;2023-05-20T07:53:36;15.49;90.26
28175;SHT30;59417;44.788;10.334;2023-05-20T07:56:02;15.39;90.89
28175;SHT30;59417;44.788;10.334;2023-05-20T07:58:30;15.48;90.79
28175;SHT30;59417;44.788;10.334;2023-05-20T08:00:56;15.41;90.92
28175;SHT30;59417;44.788;10.334;2023-05-20T08:03:22;15.34;91.04
28175;SHT30;59417;44.788;10.334;2023-05-20T08:06:07;15.49;90.37
28175;SHT30;59417;44.788;10.334;2023-05-20T08:08:33;15.53;89.98
28175;SHT30;59417;44.788;10.334;2023-05-20T08:11:08;15.55;90.67
28175;SHT30;59417;44.788;10.334;2023-05-20T08:13:36;15.62;90.76
28175;SHT30;59417;44.788;10.334;2023-05-20T08:16:02;15.66;90.36
28175;SHT30;59417;44.788;10.334;2023-05-20T08:18:29;15.65;90.54
28175;SHT30;59417;44.788;10.334;2023-05-20T08:20:54;15.62;90.91
28175;SHT30;59417;44.788;10.334;2023-05-20T08:23:20;15.63;91.11
28175;SHT30;59417;44.788;10.334;2023-05-20T08:25:46;15.67;90.94
28175;SHT30;59417;44.788;10.334;2023-05-20T08:28:13;15.65;91.04
28175;SHT30;59417;44.788;10.334;2023-05-20T08:30:39;15.66;91.12
28175;SHT30;59417;44.788;10.334;2023-05-20T08:33:06;15.72;90.75
28175;SHT30;59417;44.788;10.334;2023-05-20T08:35:32;15.70;90.48
28175;SHT30;59417;44.788;10.334;2023-05-20T08:38:00;15.66;90.66
28175;SHT30;59417;44.788;10.334;2023-05-20T08:40:27;15.69;90.77
28175;SHT30;59417;44.788;10.334;2023-05-20T08:42:53;15.77;90.69
28175;SHT30;59417;44.788;10.334;2023-05-20T08:45:20;15.86;89.27
28175;SHT30;59417;44.788;10.334;2023-05-20T08:47:51;15.91;87.30
28175;SHT30;59417;44.788;10.334;2023-05-20T08:50:16;15.79;87.48
28175;SHT30;59417;44.788;10.334;2023-05-20T08:52:44;15.65;88.49
28175;SHT30;59417;44.788;10.334;2023-05-20T08:55:14;15.63;89.12
28175;SHT30;59417;44.788;10.334;2023-05-20T08:57:42;15.70;89.43
28175;SHT30;59417;44.788;10.334;2023-05-20T09:00:12;15.89;88.00
28175;SHT30;59417;44.788;10.334;2023-05-20T09:02:38;15.79;88.68
28175;SHT30;59417;44.788;10.334;2023-05-20T09:05:04;15.73;89.37
28175;SHT30;59417;44.788;10.334;2023-05-20T09:07:30;15.83;89.78
28175;SHT30;59417;44.788;10.334;2023-05-20T09:09:56;15.93;89.44
28175;SHT30;59417;44.788;10.334;2023-05-20T09:12:22;15.80;90.06
28175;SHT30;59417;44.788;10.334;2023-05-20T09:14:48;15.77;90.27
28175;SHT30;59417;44.788;10.334;2023-05-20T09:17:14;15.74;89.55
28175;SHT30;59417;44.788;10.334;2023-05-20T09:19:40;15.76;89.56
28175;SHT30;59417;44.788;10.334;2023-05-20T09:22:06;15.83;89.28
28175;SHT30;59417;44.788;10.334;2023-05-20T09:24:32;15.76;89.67
28175;SHT30;59417;44.788;10.334;2023-05-20T09:26:58;15.79;89.55
28175;SHT30;59417;44.788;10.334;2023-05-20T09:29:24;15.77;90.13
28175;SHT30;59417;44.788;10.334;2023-05-20T09:31:51;15.80;90.56
28175;SHT30;59417;44.788;10.334;2023-05-20T09:34:19;15.87;90.53
28175;SHT30;59417;44.788;10.334;2023-05-20T09:36:49;15.84;90.44
28175;SHT30;59417;44.788;10.334;2023-05-20T09:39:23;15.91;90.47
28175;SHT30;59417;44.788;10.334;2023-05-20T09:42:37;15.96;90.39
28175;SHT30;59417;44.788;10.334;2023-05-20T09:44:57;15.98;90.50
28175;SHT30;59417;44.788;10.334;2023-05-20T09:47:24;16.14;90.32
28175;SHT30;59417;44.788;10.334;2023-05-20T09:49:52;16.13;89.86
28175;SHT30;59417;44.788;10.334;2023-05-20T09:52:23;16.14;90.36
28175;SHT30;59417;44.788;10.334;2023-05-20T09:54:56;16.14;90.02
28175;SHT30;59417;44.788;10.334;2023-05-20T09:57:24;16.07;90.51
28175;SHT30;59417;44.788;10.334;2023-05-20T09:59:53;16.17;90.42
28175;SHT30;59417;44.788;10.334;2023-05-20T10:02:19;16.24;89.92
28175;SHT30;59417;44.788;10.334;2023-05-20T10:04:50;16.20;90.24
28175;SHT30;59417;44.788;10.334;2023-05-20T10:10:17;16.23;90.28
28175;SHT30;59417;44.788;10.334;2023-05-20T10:12:50;16.17;90.70
28175;SHT30;59417;44.788;10.334;2023-05-20T10:15:23;16.23;90.39
28175;SHT30;59417;44.788;10.334;2023-05-20T10:20:46;16.14;90.01
28175;SHT30;59417;44.788;10.334;2023-05-20T10:23:29;16.13;90.48
28175;SHT30;59417;44.788;10.334;2023-05-20T10:25:56;16.09;90.59
28175;SHT30;59417;44.788;10.334;2023-05-20T10:28:32;16.12;90.55
28175;SHT30;59417;44.788;10.334;2023-05-20T10:30:59;16.13;90.81
28175;SHT30;59417;44.788;10.334;2023-05-20T10:33:29;16.12;90.95
28175;SHT30;59417;44.788;10.334;2023-05-20T10:35:59;16.14;91.17
28175;SHT30;59417;44.788;10.334;2023-05-20T10:38:24;16.23;91.16
28175;SHT30;59417;44.788;10.334;2023-05-20T10:40:51;16.30;91.16
28175;SHT30;59417;44.788;10.334;2023-05-20T10:43:25;16.34;90.89
28175;SHT30;59417;44.788;10.334;2023-05-20T10:45:54;16.35;90.65
28175;SHT30;59417;44.788;10.334;2023-05-20T10:48:29;16.37;90.77
28175;SHT30;59417;44.788;10.334;2023-05-20T10:50:59;16.37;90.74
28175;SHT30;59417;44.788;10.334;2023-05-20T10:53:29;16.47;90.04
28175;SHT30;59417;44.788;10.334;2023-05-20T10:56:02;16.33;90.30
28175;SHT30;59417;44.788;10.334;2023-05-20T10:58:36;16.34;90.14
28175;SHT30;59417;44.788;10.334;2023-05-20T11:01:01;16.31;90.01
28175;SHT30;59417;44.788;10.334;2023-05-20T11:03:28;16.24;90.30
28175;SHT30;59417;44.788;10.334;2023-05-20T11:05:54;16.31;90.46
28175;SHT30;59417;44.788;10.334;2023-05-20T11:08:20;16.30;90.69
28175;SHT30;59417;44.788;10.334;2023-05-20T11:10:46;16.28;90.62
28175;SHT30;59417;44.788;10.334;2023-05-20T11:13:12;16.18;91.06
28175;SHT30;59417;44.788;10.334;2023-05-20T11:15:39;16.28;91.09
28175;SHT30;59417;44.788;10.334;2023-05-20T11:18:06;16.28;90.98
28175;SHT30;59417;44.788;10.334;2023-05-20T11:20:32;16.34;90.64
28175;SHT30;59417;44.788;10.334;2023-05-20T11:23:00;16.31;90.47
28175;SHT30;59417;44.788;10.334;2023-05-20T11:25:27;16.25;90.64
28175;SHT30;59417;44.788;10.334;2023-05-20T11:27:53;16.17;91.33
28175;SHT30;59417;44.788;10.334;2023-05-20T11:30:20;16.18;91.46
28175;SHT30;59417;44.788;10.334;2023-05-20T11:32:56;16.16;91.53
28175;SHT30;59417;44.788;10.334;2023-05-20T11:35:24;16.09;91.65
28175;SHT30;59417;44.788;10.334;2023-05-20T11:38:01;16.10;91.85
28175;SHT30;59417;44.788;10.334;2023-05-20T11:40:28;16.17;91.67
28175;SHT30;59417;44.788;10.334;2023-05-20T11:42:57;16.16;91.91
28175;SHT30;59417;44.788;10.334;2023-05-20T11:45:23;16.28;91.23
28175;SHT30;59417;44.788;10.334;2023-05-20T11:48:03;16.16;91.67
28175;SHT30;59417;44.788;10.334;2023-05-20T11:50:34;16.20;91.83
28175;SHT30;59417;44.788;10.334;2023-05-20T11:53:02;16.27;91.89
28175;SHT30;59417;44.788;10.334;2023-05-20T11:55:28;16.37;91.05
28175;SHT30;59417;44.788;10.334;2023-05-20T11:57:57;16.25;91.75
28175;SHT30;59417;44.788;10.334;2023-05-20T12:00:23;16.31;91.40
28175;SHT30;59417;44.788;10.334;2023-05-20T12:02:50;16.24;92.09
28175;SHT30;59417;44.788;10.334;2023-05-20T12:05:16;16.38;91.61
28175;SHT30;59417;44.788;10.334;2023-05-20T12:07:42;16.25;92.17
28175;SHT30;59417;44.788;10.334;2023-05-20T12:10:09;16.34;92.22
28175;SHT30;59417;44.788;10.334;2023-05-20T12:12:35;16.33;91.69
28175;SHT30;59417;44.788;10.334;2023-05-20T12:15:04;16.34;91.73
28175;SHT30;59417;44.788;10.334;2023-05-20T12:17:45;16.33;92.05
28175;SHT30;59417;44.788;10.334;2023-05-20T12:20:13;16.37;92.23
28175;SHT30;59417;44.788;10.334;2023-05-20T12:22:39;16.33;92.24
28175;SHT30;59417;44.788;10.334;2023-05-20T12:25:05;16.47;92.01
28175;SHT30;59417;44.788;10.334;2023-05-20T12:27:31;16.44;92.01
28175;SHT30;59417;44.788;10.334;2023-05-20T12:29:58;16.45;92.10
28175;SHT30;59417;44.788;10.334;2023-05-20T12:32:24;16.42;91.87
28175;SHT30;59417;44.788;10.334;2023-05-20T12:34:50;16.42;91.85
28175;SHT30;59417;44.788;10.334;2023-05-20T12:37:15;16.47;91.89
28175;SHT30;59417;44.788;10.334;2023-05-20T12:39:41;16.47;92.15
28175;SHT30;59417;44.788;10.334;2023-05-20T12:42:07;16.52;92.31
28175;SHT30;59417;44.788;10.334;2023-05-20T12:44:32;16.59;92.26
28175;SHT30;59417;44.788;10.334;2023-05-20T12:46:58;16.58;92.06
28175;SHT30;59417;44.788;10.334;2023-05-20T12:49:23;16.61;91.99
28175;SHT30;59417;44.788;10.334;2023-05-20T12:51:49;16.59;92.24
28175;SHT30;59417;44.788;10.334;2023-05-20T12:54:16;16.61;92.26
28175;SHT30;59417;44.788;10.334;2023-05-20T12:56:41;16.64;92.25
28175;SHT30;59417;44.788;10.334;2023-05-20T12:59:11;16.68;92.27
28175;SHT30;59417;44.788;10.334;2023-05-20T13:01:37;16.69;92.27
28175;SHT30;59417;44.788;10.334;2023-05-20T13:04:03;16.76;92.29
28175;SHT30;59417;44.788;10.334;2023-05-20T13:06:29;16.85;92.12
28175;SHT30;59417;44.788;10.334;2023-05-20T13:08:54;16.89;91.98
28175;SHT30;59417;44.788;10.334;2023-05-20T13:11:20;16.96;91.37
28175;SHT30;59417;44.788;10.334;2023-05-20T13:13:46;16.95;91.71
28175;SHT30;59417;44.788;10.334;2023-05-20T13:16:11;16.98;91.93
28175;SHT30;59417;44.788;10.334;2023-05-20T13:18:37;17.02;92.18
28175;SHT30;59417;44.788;10.334;2023-05-20T13:21:02;17.03;92.26
28175;SHT30;59417;44.788;10.334;2023-05-20T13:23:28;17.08;92.33
28175;SHT30;59417;44.788;10.334;2023-05-20T13:25:53;17.13;92.28
28175;SHT30;59417;44.788;10.334;2023-05-20T13:28:19;17.22;92.42
28175;SHT30;59417;44.788;10.334;2023-05-20T13:30:45;17.29;92.33
28175;SHT30;59417;44.788;10.334;2023-05-20T13:33:11;17.37;92.06
28175;SHT30;59417;44.788;10.334;2023-05-20T13:35:36;17.43;92.34
28175;SHT30;59417;44.788;10.334;2023-05-20T13:38:02;17.44;92.24
28175;SHT30;59417;44.788;10.334;2023-05-20T13:40:28;17.43;92.25
28175;SHT30;59417;44.788;10.334;2023-05-20T13:42:53;17.39;92.35
28175;SHT30;59417;44.788;10.334;2023-05-20T13:45:19;17.46;92.28
28175;SHT30;59417;44.788;10.334;2023-05-20T13:47:46;17.50;92.49
28175;SHT30;59417;44.788;10.334;2023-05-20T13:50:12;17.43;92.53
28175;SHT30;59417;44.788;10.334;2023-05-20T13:52:38;17.43;92.58
28175;SHT30;59417;44.788;10.334;2023-05-20T13:55:03;17.43;92.53
28175;SHT30;59417;44.788;10.334;2023-05-20T13:57:29;17.40;92.63
28175;SHT30;59417;44.788;10.334;2023-05-20T13:59:55;17.44;92.72
28175;SHT30;59417;44.788;10.334;2023-05-20T14:02:20;17.46;92.75
28175;SHT30;59417;44.788;10.334;2023-05-20T14:04:46;17.47;92.82
28175;SHT30;59417;44.788;10.334;2023-05-20T14:07:12;17.50;92.77
28175;SHT30;59417;44.788;10.334;2023-05-20T14:09:37;17.46;92.84
28175;SHT30;59417;44.788;10.334;2023-05-20T14:12:04;17.47;93.00
28175;SHT30;59417;44.788;10.334;2023-05-20T14:14:30;17.46;92.97
28175;SHT30;59417;44.788;10.334;2023-05-20T14:16:55;17.44;93.08
28175;SHT30;59417;44.788;10.334;2023-05-20T14:19:21;17.54;92.91
28175;SHT30;59417;44.788;10.334;2023-05-20T14:21:46;17.50;93.03
28175;SHT30;59417;44.788;10.334;2023-05-20T14:24:12;17.51;92.96
28175;SHT30;59417;44.788;10.334;2023-05-20T14:26:38;17.53;92.78
28175;SHT30;59417;44.788;10.334;2023-05-20T14:29:03;17.47;92.83
28175;SHT30;59417;44.788;10.334;2023-05-20T14:31:29;17.43;92.65
28175;SHT30;59417;44.788;10.334;2023-05-20T14:33:54;17.39;92.33
28175;SHT30;59417;44.788;10.334;2023-05-20T14:36:20;17.40;92.21
28175;SHT30;59417;44.788;10.334;2023-05-20T14:38:46;17.41;92.03
28175;SHT30;59417;44.788;10.334;2023-05-20T14:41:11;17.44;91.94
28175;SHT30;59417;44.788;10.334;2023-05-20T14:43:37;17.37;91.75
28175;SHT30;59417;44.788;10.334;2023-05-20T14:46:03;17.39;91.63
28175;SHT30;59417;44.788;10.334;2023-05-20T14:48:29;17.37;91.71
28175;SHT30;59417;44.788;10.334;2023-05-20T14:50:54;17.36;91.80
28175;SHT30;59417;44.788;10.334;2023-05-20T14:53:21;17.33;92.00
28175;SHT30;59417;44.788;10.334;2023-05-20T14:55:47;17.31;92.05
28175;SHT30;59417;44.788;10.334;2023-05-20T14:58:13;17.29;91.94
28175;SHT30;59417;44.788;10.334;2023-05-20T15:00:38;17.27;91.98
28175;SHT30;59417;44.788;10.334;2023-05-20T15:03:04;17.29;91.99
28175;SHT30;59417;44.788;10.334;2023-05-20T15:05:30;17.31;91.89
28175;SHT30;59417;44.788;10.334;2023-05-20T15:07:56;17.26;92.04
28175;SHT30;59417;44.788;10.334;2023-05-20T15:10:22;17.26;92.15
28175;SHT30;59417;44.788;10.334;2023-05-20T15:12:47;17.23;92.14
28175;SHT30;59417;44.788;10.334;2023-05-20T15:15:13;17.29;92.14
28175;SHT30;59417;44.788;10.334;2023-05-20T15:17:39;17.29;92.11
28175;SHT30;59417;44.788;10.334;2023-05-20T15:20:05;17.30;92.02
28175;SHT30;59417;44.788;10.334;2023-05-20T15:22:31;17.27;92.06
28175;SHT30;59417;44.788;10.334;2023-05-20T15:25:00;17.27;92.23
28175;SHT30;59417;44.788;10.334;2023-05-20T15:27:26;17.27;92.30
28175;SHT30;59417;44.788;10.334;2023-05-20T15:29:51;17.34;92.30
28175;SHT30;59417;44.788;10.334;2023-05-20T15:32:17;17.33;92.39
28175;SHT30;59417;44.788;10.334;2023-05-20T15:34:44;17.33;92.40
28175;SHT30;59417;44.788;10.334;2023-05-20T15:37:10;17.33;92.44
28175;SHT30;59417;44.788;10.334;2023-05-20T15:39:36;17.34;92.46